createdAt,value
2023-02-01T00:00:30.578Z,99899.41
2023-02-01T00:02:57.018Z,99902.75
2023-02-01T00:05:23.462Z,99917.56
2023-02-01T00:07:50.210Z,99906.22
2023-02-01T00:10:17.474Z,99908.75
2023-02-01T00:12:44.645Z,99913.94
2023-02-01T00:15:11.566Z,99905.19
2023-02-01T00:17:38.199Z,99900.81
2023-02-01T00:20:05.277Z,99893.81
2023-02-01T00:22:31.827Z,99888.53
2023-02-01T00:24:58.360Z,99874.56
2023-02-01T00:27:24.995Z,99867.56
2023-02-01T00:29:51.415Z,99882.34
2023-02-01T00:32:17.901Z,99876.19
2023-02-01T00:34:44.395Z,99873.59
2023-02-01T00:37:10.853Z,99877.06
2023-02-01T00:39:37.327Z,99864.81
2023-02-01T00:42:04.513Z,99866.50
2023-02-01T00:44:34.231Z,99856.97
2023-02-01T00:47:01.536Z,99866.50
2023-02-01T00:49:29.277Z,99856.06
2023-02-01T00:51:56.171Z,99857.78
2023-02-01T00:54:22.660Z,99850.81
2023-02-01T00:56:49.154Z,99853.38
2023-02-01T00:59:15.858Z,99851.63
2023-02-01T01:01:42.375Z,99854.25
2023-02-01T01:04:09.009Z,99861.22
2023-02-01T01:06:35.876Z,99859.47
2023-02-01T01:09:05.738Z,99859.47
2023-02-01T01:11:35.905Z,99862.09
2023-02-01T01:14:02.512Z,99861.22
2023-02-01T01:16:31.005Z,99876.88
2023-02-01T01:18:57.985Z,99869.06
2023-02-01T01:21:24.883Z,99873.47
2023-02-01T01:23:51.672Z,99877.06
2023-02-01T01:26:21.817Z,99877.13
2023-02-01T01:28:48.481Z,99879.72
2023-02-01T01:31:16.956Z,99864.97
2023-02-01T01:33:44.757Z,99866.66
2023-02-01T01:36:12.935Z,99848.34
2023-02-01T01:38:41.254Z,99858.81
2023-02-01T01:41:08.825Z,99849.19
2023-02-01T01:43:53.635Z,99852.81
2023-02-01T01:46:23.680Z,99844.03
2023-02-01T01:49:08.194Z,99840.63
2023-02-01T01:51:40.768Z,99832.72
2023-02-01T01:54:35.935Z,99824.94
2023-02-01T01:57:34.530Z,99825.72
2023-02-01T02:00:08.450Z,99827.28
2023-02-01T02:02:36.960Z,99822.94
2023-02-01T02:05:04.223Z,99812.41
2023-02-01T02:10:02.994Z,99810.56
2023-02-01T02:12:29.801Z,99801.84
2023-02-01T02:14:56.690Z,99800.00
2023-02-01T02:17:31.228Z,99787.84
2023-02-01T02:20:53.731Z,99793.06
2023-02-01T02:23:37.800Z,99792.03
2023-02-01T02:26:15.349Z,99781.53
2023-02-01T02:29:06.597Z,99768.38
2023-02-01T02:32:11.017Z,99773.53
2023-02-01T02:34:50.567Z,99774.28
2023-02-01T02:37:36.197Z,99767.16
2023-02-01T02:40:15.605Z,99753.16
2023-02-01T02:43:03.784Z,99757.28
2023-02-01T02:46:03.864Z,99770.38
2023-02-01T02:48:42.005Z,99764.22
2023-02-01T02:51:30.203Z,99754.56
2023-02-01T02:54:31.199Z,99754.72
2023-02-01T02:57:19.052Z,99757.28
2023-02-01T03:00:06.992Z,99762.50
2023-02-01T03:02:53.253Z,99765.06
2023-02-01T03:05:19.847Z,99757.22
2023-02-01T03:08:05.015Z,99752.97
2023-02-01T03:11:09.736Z,99743.28
2023-02-01T03:13:58.920Z,99731.94
2023-02-01T03:16:43.456Z,99723.16
2023-02-01T03:19:22.935Z,99717.81
2023-02-01T03:21:57.699Z,99712.47
2023-02-01T03:24:39.044Z,99720.22
2023-02-01T03:27:36.647Z,99716.00
2023-02-01T03:30:18.925Z,99712.34
2023-02-01T03:33:00.727Z,99713.06
2023-02-01T03:35:38.465Z,99712.22
2023-02-01T03:38:08.805Z,99706.03
2023-02-01T03:40:37.920Z,99708.63
2023-02-01T03:43:08.380Z,99714.63
2023-02-01T03:45:41.675Z,99706.78
2023-02-01T03:48:10.041Z,99698.03
2023-02-01T03:50:39.454Z,99701.56
2023-02-01T03:53:15.782Z,99700.72
2023-02-01T03:55:43.228Z,99715.44
2023-02-01T03:58:14.405Z,99708.50
2023-02-01T04:00:41.948Z,99706.78
2023-02-01T04:03:08.661Z,99690.31
2023-02-01T04:05:35.375Z,99698.28
2023-02-01T04:08:01.932Z,99696.66
2023-02-01T04:10:28.820Z,99688.94
2023-02-01T04:12:55.530Z,99699.50
2023-02-01T04:15:22.097Z,99697.06
2023-02-01T04:17:48.588Z,99696.19
2023-02-01T04:20:15.168Z,99690.25
2023-02-01T04:22:41.765Z,99691.16
2023-02-01T04:25:09.024Z,99690.31
2023-02-01T04:27:36.182Z,99685.13
2023-02-01T04:30:04.078Z,99693.97
2023-02-01T04:32:30.490Z,99683.56
2023-02-01T04:34:56.988Z,99694.88
2023-02-01T04:37:23.546Z,99674.88
2023-02-01T04:39:50.071Z,99671.47
2023-02-01T04:42:16.655Z,99675.94
2023-02-01T04:44:43.856Z,99671.53
2023-02-01T04:47:10.600Z,99678.47
2023-02-01T04:49:37.146Z,99670.69
2023-02-01T04:52:04.124Z,99681.16
2023-02-01T04:54:30.458Z,99689.00
2023-02-01T04:56:56.867Z,99684.69
2023-02-01T04:59:23.324Z,99676.84
2023-02-01T05:01:49.726Z,99659.44
2023-02-01T05:04:16.164Z,99662.19
2023-02-01T05:06:42.552Z,99660.41
2023-02-01T05:09:08.920Z,99653.50
2023-02-01T05:11:54.022Z,99658.72
2023-02-01T05:14:20.362Z,99657.84
2023-02-01T05:16:49.609Z,99652.78
2023-02-01T05:19:15.940Z,99648.38
2023-02-01T05:21:42.261Z,99655.50
2023-02-01T05:24:20.459Z,99648.59
2023-02-01T05:26:48.121Z,99643.34
2023-02-01T05:29:15.372Z,99648.59
2023-02-01T05:31:42.353Z,99644.25
2023-02-01T05:34:08.874Z,99648.59
2023-02-01T05:36:35.227Z,99641.56
2023-02-01T05:39:01.619Z,99637.22
2023-02-01T05:41:28.056Z,99653.66
2023-02-01T05:43:54.715Z,99649.31
2023-02-01T05:46:21.406Z,99627.53
2023-02-01T05:48:47.882Z,99625.75
2023-02-01T05:51:14.265Z,99618.78
2023-02-01T05:53:40.637Z,99620.41
2023-02-01T05:56:07.933Z,99625.66
2023-02-01T05:58:34.493Z,99630.81
2023-02-01T06:01:01.792Z,99646.50
2023-02-01T06:03:46.555Z,99650.00
2023-02-01T06:06:13.135Z,99648.84
2023-02-01T06:08:41.206Z,99652.25
2023-02-01T06:11:07.951Z,99660.03
2023-02-01T06:13:35.006Z,99659.91
2023-02-01T06:16:03.458Z,99677.22
2023-02-01T06:18:31.606Z,99674.50
2023-02-01T06:21:24.997Z,99673.56
2023-02-01T06:23:52.474Z,99677.69
2023-02-01T06:26:19.044Z,99685.34
2023-02-01T06:28:45.952Z,99682.66
2023-02-01T06:31:12.994Z,99676.59
2023-02-01T06:33:40.270Z,99683.50
2023-02-01T06:36:08.400Z,99679.91
2023-02-01T06:38:36.005Z,99680.72
2023-02-01T06:41:03.470Z,99690.19
2023-02-01T06:43:30.842Z,99683.13
2023-02-01T06:46:05.252Z,99679.50
2023-02-01T06:48:32.183Z,99681.03
2023-02-01T06:50:58.891Z,99680.91
2023-02-01T06:53:25.595Z,99689.38
2023-02-01T06:55:56.439Z,99677.94
2023-02-01T06:58:23.375Z,99684.66
2023-02-01T07:00:50.070Z,99695.91
2023-02-01T07:03:16.517Z,99693.16
2023-02-01T07:05:43.069Z,99702.53
2023-02-01T07:08:09.840Z,99706.81
2023-02-01T07:10:36.427Z,99701.47
2023-02-01T07:13:02.954Z,99702.16
2023-02-01T07:15:29.445Z,99702.03
2023-02-01T07:17:56.534Z,99695.75
2023-02-01T07:20:23.724Z,99695.69
2023-02-01T07:22:55.874Z,99702.63
2023-02-01T07:25:22.525Z,99700.63
2023-02-01T07:27:48.963Z,99699.63
2023-02-01T07:30:15.607Z,99710.91
2023-02-01T07:32:42.257Z,99707.38
2023-02-01T07:35:08.961Z,99713.38
2023-02-01T07:37:35.807Z,99722.03
2023-02-01T07:40:02.454Z,99728.03
2023-02-01T07:42:28.893Z,99728.91
2023-02-01T07:44:55.477Z,99725.28
2023-02-01T07:47:21.993Z,99732.22
2023-02-01T07:49:48.559Z,99728.69
2023-02-01T07:52:17.747Z,99738.31
2023-02-01T07:54:44.527Z,99746.94
2023-02-01T07:57:12.803Z,99734.69
2023-02-01T07:59:59.200Z,99743.31
2023-02-01T08:02:25.795Z,99741.50
2023-02-01T08:04:52.283Z,99747.59
2023-02-01T08:07:18.848Z,99745.81
2023-02-01T08:09:45.356Z,99751.06
2023-02-01T08:12:11.885Z,99742.28
2023-02-01T08:14:38.409Z,99734.41
2023-02-01T08:17:04.981Z,99740.44
2023-02-01T08:19:31.537Z,99745.69
2023-02-01T08:21:57.930Z,99738.69
2023-02-01T08:24:24.449Z,99743.94
2023-02-01T08:26:50.926Z,99743.00
2023-02-01T08:29:17.477Z,99737.75
2023-02-01T08:31:44.464Z,99742.13
2023-02-01T08:34:12.912Z,99747.25
2023-02-01T08:36:39.475Z,99753.25
2023-02-01T08:39:09.817Z,99749.75
2023-02-01T08:41:36.565Z,99753.13
2023-02-01T08:44:03.066Z,99748.69
2023-02-01T08:46:29.741Z,99759.94
2023-02-01T08:48:56.781Z,99736.34
2023-02-01T08:51:24.031Z,99745.81
2023-02-01T08:53:51.288Z,99740.59
2023-02-01T08:56:19.413Z,99740.50
2023-02-01T08:58:46.137Z,99744.00
2023-02-01T09:01:16.147Z,99750.06
2023-02-01T09:03:42.866Z,99748.25
2023-02-01T09:06:12.240Z,99744.69
2023-02-01T09:08:39.802Z,99752.41
2023-02-01T09:11:09.301Z,99737.38
2023-02-01T09:13:36.473Z,99732.00
2023-02-01T09:16:04.340Z,99733.63
2023-02-01T09:18:31.010Z,99731.78
2023-02-01T09:20:57.498Z,99725.53
2023-02-01T09:23:24.081Z,99724.53
2023-02-01T09:25:52.468Z,99725.31
2023-02-01T09:28:19.613Z,99724.38
2023-02-01T09:30:46.513Z,99718.16
2023-02-01T09:33:13.317Z,99711.13
2023-02-01T09:35:39.920Z,99706.66
2023-02-01T09:38:06.384Z,99715.38
2023-02-01T09:40:36.305Z,99691.72
2023-02-01T09:43:11.700Z,99693.47
2023-02-01T09:46:02.712Z,99695.94
2023-02-01T09:48:33.884Z,99701.81
2023-02-01T09:51:03.636Z,99698.97
2023-02-01T09:53:41.314Z,99702.50
2023-02-01T09:56:15.557Z,99696.28
2023-02-01T09:58:48.589Z,99701.44
2023-02-01T10:01:23.358Z,99703.22
2023-02-01T10:03:51.319Z,99697.63
2023-02-01T10:06:34.032Z,99714.28
2023-02-01T10:09:16.211Z,99710.88
2023-02-01T10:11:58.765Z,99708.19
2023-02-01T10:14:26.438Z,99692.44
2023-02-01T10:17:04.988Z,99696.13
2023-02-01T10:19:50.078Z,99683.06
2023-02-01T10:22:59.936Z,99690.19
2023-02-01T10:25:29.595Z,99682.22
2023-02-01T10:28:00.597Z,99695.34
2023-02-01T10:30:35.787Z,99693.66
2023-02-01T10:33:17.266Z,99697.44
2023-02-01T10:35:45.622Z,99685.06
2023-02-01T10:38:26.572Z,99686.06
2023-02-01T10:40:56.125Z,99662.31
2023-02-01T10:43:22.804Z,99675.44
2023-02-01T10:45:49.636Z,99664.88
2023-02-01T10:48:16.742Z,99663.00
2023-02-01T10:51:00.045Z,99658.84
2023-02-01T10:53:40.537Z,99669.06
2023-02-01T10:56:09.484Z,99655.78
2023-02-01T10:58:38.759Z,99657.56
2023-02-01T11:01:08.735Z,99649.81
2023-02-01T11:03:46.143Z,99643.88
2023-02-01T11:06:40.126Z,99629.22
2023-02-01T11:09:06.550Z,99637.78
2023-02-01T11:11:34.011Z,99628.38
2023-02-01T11:14:11.803Z,99623.44
2023-02-01T11:16:39.750Z,99611.41
2023-02-01T11:19:07.346Z,99617.66
2023-02-01T11:21:35.435Z,99607.47
2023-02-01T11:24:06.420Z,99598.13
2023-02-01T11:26:34.010Z,99610.47
2023-02-01T11:29:05.967Z,99593.34
2023-02-01T11:31:35.563Z,99618.00
2023-02-01T11:34:21.612Z,99606.28
2023-02-01T11:36:50.775Z,99605.59
2023-02-01T11:39:35.945Z,99605.09
2023-02-01T11:42:17.916Z,99588.81
2023-02-01T11:44:46.855Z,99600.38
2023-02-01T11:47:26.943Z,99589.34
2023-02-01T11:49:59.764Z,99583.31
2023-02-01T11:52:35.055Z,99574.69
2023-02-01T11:55:01.435Z,99574.91
2023-02-01T11:58:00.384Z,99586.50
2023-02-01T12:00:37.568Z,99591.59
2023-02-01T12:03:34.682Z,99568.34
2023-02-01T12:06:13.405Z,99592.75
2023-02-01T12:08:52.178Z,99564.00
2023-02-01T12:11:33.821Z,99578.03
2023-02-01T12:14:46.006Z,99574.84
2023-02-01T12:17:49.925Z,99570.53
2023-02-01T12:20:54.551Z,99576.75
2023-02-01T12:23:37.985Z,99571.66
2023-02-01T12:26:19.743Z,99555.94
2023-02-01T12:29:18.384Z,99570.91
2023-02-01T12:32:02.887Z,99560.25
2023-02-01T12:34:50.495Z,99558.63
2023-02-01T12:37:42.089Z,99543.78
2023-02-01T12:40:40.689Z,99551.66
2023-02-01T12:43:26.041Z,99535.88
2023-02-01T12:46:05.434Z,99541.09
2023-02-01T12:48:38.489Z,99526.09
2023-02-01T12:51:10.326Z,99508.53
2023-02-01T12:54:01.421Z,99531.13
2023-02-01T12:56:41.056Z,99494.53
2023-02-01T12:59:21.882Z,99494.53
2023-02-01T13:01:53.297Z,99492.81
2023-02-01T13:04:53.270Z,99513.75
2023-02-01T13:07:30.440Z,99497.06
2023-02-01T13:10:16.198Z,99493.59
2023-02-01T13:13:17.704Z,99509.31
2023-02-01T13:16:06.827Z,99510.88
2023-02-01T13:18:40.679Z,99500.25
2023-02-01T13:21:12.090Z,99514.78
2023-02-01T13:23:41.016Z,99521.66
2023-02-01T13:26:07.545Z,99511.97
2023-02-01T13:28:50.772Z,99515.50
2023-02-01T13:31:36.984Z,99536.22
2023-02-01T13:34:34.845Z,99538.72
2023-02-01T13:37:06.623Z,99556.97
2023-02-01T13:40:18.514Z,99562.28
2023-02-01T13:42:52.645Z,99574.38
2023-02-01T13:45:24.212Z,99565.59
2023-02-01T13:47:54.292Z,99573.53
2023-02-01T13:50:37.177Z,99573.63
2023-02-01T13:53:12.699Z,99579.00
2023-02-01T13:55:41.877Z,99568.59
2023-02-01T13:58:15.795Z,99563.66
2023-02-01T14:00:46.688Z,99543.91
2023-02-01T14:03:43.137Z,99542.50
2023-02-01T14:06:33.725Z,99553.47
2023-02-01T14:09:13.433Z,99551.00
2023-02-01T14:11:47.061Z,99552.84
2023-02-01T14:14:16.725Z,99557.22
2023-02-01T14:16:55.621Z,99570.09
2023-02-01T14:19:28.329Z,99588.22
2023-02-01T14:22:02.027Z,99580.09
2023-02-01T14:24:34.405Z,99589.44
2023-02-01T14:27:09.028Z,99589.19
2023-02-01T14:29:41.423Z,99584.69
2023-02-01T14:32:07.982Z,99589.63
2023-02-01T14:34:38.731Z,99596.53
2023-02-01T14:37:09.555Z,99595.41
2023-02-01T14:40:22.676Z,99596.13
2023-02-01T14:42:54.660Z,99593.91
2023-02-01T14:45:24.677Z,99600.63
2023-02-01T14:48:15.742Z,99597.06
2023-02-01T14:50:48.548Z,99596.94
2023-02-01T14:53:34.171Z,99582.00
2023-02-01T14:56:07.085Z,99598.47
2023-02-01T14:58:37.392Z,99591.41
2023-02-01T15:01:32.051Z,99592.38
2023-02-01T15:04:11.588Z,99610.66
2023-02-01T15:06:41.057Z,99610.53
2023-02-01T15:09:16.698Z,99620.88
2023-02-01T15:12:07.018Z,99606.91
2023-02-01T15:14:43.502Z,99615.38
2023-02-01T15:17:24.828Z,99604.06
2023-02-01T15:19:55.157Z,99610.84
2023-02-01T15:22:22.199Z,99627.28
2023-02-01T15:25:00.445Z,99632.59
2023-02-01T15:27:29.169Z,99621.97
2023-02-01T15:29:55.675Z,99615.84
2023-02-01T15:32:39.760Z,99623.03
2023-02-01T15:35:07.133Z,99636.00
2023-02-01T15:37:33.697Z,99631.66
2023-02-01T15:40:12.674Z,99646.63
2023-02-01T15:42:53.616Z,99635.28
2023-02-01T15:45:23.179Z,99637.69
2023-02-01T15:47:52.136Z,99644.63
2023-02-01T15:50:25.213Z,99635.00
2023-02-01T15:52:55.016Z,99641.00
2023-02-01T15:55:30.580Z,99636.53
2023-02-01T15:57:57.314Z,99648.72
2023-02-01T16:00:29.833Z,99649.59
2023-02-01T16:03:01.505Z,99648.72
2023-02-01T16:05:39.440Z,99648.72
2023-02-01T16:08:23.967Z,99663.75
2023-02-01T16:10:53.421Z,99672.41
2023-02-01T16:13:21.475Z,99663.75
2023-02-01T16:15:48.826Z,99672.53
2023-02-01T16:18:17.830Z,99684.88
2023-02-01T16:20:45.313Z,99666.66
2023-02-01T16:23:11.868Z,99676.41
2023-02-01T16:25:40.840Z,99677.47
2023-02-01T16:28:07.636Z,99675.84
2023-02-01T16:30:34.412Z,99689.00
2023-02-01T16:33:06.221Z,99697.00
2023-02-01T16:35:38.808Z,99697.16
2023-02-01T16:38:13.262Z,99705.06
2023-02-01T16:40:41.266Z,99714.72
2023-02-01T16:43:20.130Z,99717.50
2023-02-01T16:45:49.532Z,99717.50
2023-02-01T16:48:19.127Z,99719.34
2023-02-01T16:50:48.141Z,99724.59
2023-02-01T16:53:17.356Z,99721.09
2023-02-01T16:55:44.467Z,99715.94
2023-02-01T16:58:11.052Z,99721.09
2023-02-01T17:00:40.474Z,99732.53
2023-02-01T17:03:06.876Z,99742.00
2023-02-01T17:05:34.988Z,99729.72
2023-02-01T17:08:06.505Z,99732.28
2023-02-01T17:10:34.379Z,99734.00
2023-02-01T17:13:01.856Z,99742.63
2023-02-01T17:15:34.951Z,99740.88
2023-02-01T17:18:02.761Z,99739.03
2023-02-01T17:20:32.726Z,99745.94
2023-02-01T17:22:59.805Z,99750.38
2023-02-01T17:25:28.552Z,99752.91
2023-02-01T17:27:55.238Z,99750.38
2023-02-01T17:30:21.963Z,99738.94
2023-02-01T17:32:48.420Z,99752.06
2023-02-01T17:35:28.070Z,99739.09
2023-02-01T17:37:55.085Z,99744.13
2023-02-01T17:40:21.555Z,99746.81
2023-02-01T17:42:48.583Z,99751.28
2023-02-01T17:45:37.320Z,99747.94
2023-02-01T17:48:05.697Z,99744.34
2023-02-01T17:50:34.751Z,99755.59
2023-02-01T17:53:02.999Z,99763.53
2023-02-01T17:55:29.919Z,99753.97
2023-02-01T17:57:56.291Z,99749.56
2023-02-01T18:00:22.809Z,99757.44
2023-02-01T18:02:49.354Z,99749.63
2023-02-01T18:05:44.570Z,99755.09
2023-02-01T18:08:10.940Z,99755.81
2023-02-01T18:10:37.300Z,99751.50
2023-02-01T18:13:03.905Z,99754.19
2023-02-01T18:15:31.732Z,99749.94
2023-02-01T18:17:59.357Z,99748.25
2023-02-01T18:20:27.379Z,99748.38
2023-02-01T18:22:53.823Z,99751.06
2023-02-01T18:25:26.323Z,99753.75
2023-02-01T18:27:54.861Z,99752.91
2023-02-01T18:30:23.162Z,99753.03
2023-02-01T18:32:50.113Z,99752.19
2023-02-01T18:35:25.345Z,99765.38
2023-02-01T18:37:53.419Z,99754.09
2023-02-01T18:40:23.055Z,99759.47
2023-02-01T18:42:50.385Z,99763.81
2023-02-01T18:45:37.088Z,99768.38
2023-02-01T18:48:05.021Z,99774.41
2023-02-01T18:50:34.538Z,99765.75
2023-02-01T18:53:03.640Z,99769.31
2023-02-01T18:55:32.485Z,99796.38
2023-02-01T18:58:00.536Z,99788.44
2023-02-01T19:00:28.322Z,99796.22
2023-02-01T19:02:54.919Z,99801.38
2023-02-01T19:05:21.915Z,99802.13
2023-02-01T19:07:48.568Z,99793.28
2023-02-01T19:10:22.252Z,99791.41
2023-02-01T19:12:50.550Z,99802.69
2023-02-01T19:15:18.216Z,99798.22
2023-02-01T19:17:47.790Z,99797.41
2023-02-01T19:20:17.799Z,99796.47
2023-02-01T19:22:44.746Z,99792.06
2023-02-01T19:25:15.848Z,99790.38
2023-02-01T19:27:42.318Z,99791.28
2023-02-01T19:30:12.636Z,99780.00
2023-02-01T19:32:39.724Z,99786.19
2023-02-01T19:35:07.928Z,99793.28
2023-02-01T19:37:34.517Z,99789.84
2023-02-01T19:40:00.874Z,99786.53
2023-02-01T19:42:27.784Z,99791.84
2023-02-01T19:44:54.170Z,99789.34
2023-02-01T19:47:20.535Z,99806.84
2023-02-01T19:49:46.862Z,99796.50
2023-02-01T19:52:13.206Z,99795.72
2023-02-01T19:54:39.580Z,99794.88
2023-02-01T19:57:05.930Z,99794.06
2023-02-01T19:59:32.332Z,99782.75
2023-02-01T20:01:57.839Z,99801.94
2023-02-01T20:04:24.662Z,99797.53
2023-02-01T20:06:51.040Z,99809.78
2023-02-01T20:09:19.619Z,99803.72
2023-02-01T20:11:46.335Z,99807.09
2023-02-01T20:14:13.442Z,99814.91
2023-02-01T20:16:41.108Z,99803.44
2023-02-01T20:19:09.186Z,99806.06
2023-02-01T20:21:36.963Z,99816.53
2023-02-01T20:24:05.555Z,99809.66
2023-02-01T20:26:34.410Z,99823.63
2023-02-01T20:29:01.946Z,99811.50
2023-02-01T20:31:29.754Z,99827.22
2023-02-01T20:33:57.760Z,99820.34
2023-02-01T20:36:26.259Z,99813.38
2023-02-01T20:38:54.480Z,99815.31
2023-02-01T20:41:21.582Z,99820.53
2023-02-01T20:43:48.618Z,99811.13
2023-02-01T20:46:16.055Z,99817.28
2023-02-01T20:48:44.168Z,99822.63
2023-02-01T20:51:12.079Z,99822.69
2023-02-01T20:53:39.420Z,99824.59
2023-02-01T20:56:06.256Z,99823.81
2023-02-01T20:58:32.985Z,99824.72
2023-02-01T21:00:59.476Z,99833.56
2023-02-01T21:03:26.030Z,99837.16
2023-02-01T21:05:55.064Z,99842.53
2023-02-01T21:08:21.878Z,99835.72
2023-02-01T21:11:09.730Z,99846.34
2023-02-01T21:13:42.760Z,99846.34
2023-02-01T21:16:10.582Z,99855.06
2023-02-01T21:18:37.237Z,99854.19
2023-02-01T21:21:05.535Z,99854.31
2023-02-01T21:23:31.939Z,99851.81
2023-02-01T21:26:02.454Z,99845.00
2023-02-01T21:28:28.875Z,99846.84
2023-02-01T21:30:55.288Z,99849.44
2023-02-01T21:33:21.849Z,99848.66
2023-02-01T21:35:50.316Z,99849.56
2023-02-01T21:38:17.205Z,99846.19
2023-02-01T21:40:43.578Z,99847.06
2023-02-01T21:43:09.926Z,99854.13
2023-02-01T21:45:38.307Z,99859.38
2023-02-01T21:48:06.973Z,99862.91
2023-02-01T21:50:35.128Z,99861.28
2023-02-01T21:53:01.713Z,99866.50
2023-02-01T21:55:28.028Z,99872.69
2023-02-01T21:57:54.435Z,99877.09
2023-02-01T22:00:21.109Z,99880.69
2023-02-01T22:02:47.457Z,99876.38
2023-02-01T22:05:14.672Z,99879.94
2023-02-01T22:07:41.115Z,99878.22
2023-02-01T22:10:07.835Z,99889.56
2023-02-01T22:12:34.239Z,99894.78
2023-02-01T22:15:00.573Z,99894.00
2023-02-01T22:17:27.230Z,99901.00
2023-02-01T22:19:53.542Z,99906.25
2023-02-01T22:22:19.878Z,99903.69
2023-02-01T22:24:46.200Z,99907.22
2023-02-01T22:27:13.245Z,99913.34
2023-02-01T22:29:40.952Z,99920.28
2023-02-01T22:32:08.429Z,99921.13
2023-02-01T22:34:34.783Z,99923.78
2023-02-01T22:37:01.121Z,99928.16
2023-02-01T22:39:27.465Z,99924.72
2023-02-01T22:41:53.792Z,99934.25
2023-02-01T22:44:20.111Z,99932.50
2023-02-01T22:46:46.726Z,99934.25
2023-02-01T22:49:13.363Z,99938.72
2023-02-01T22:51:39.753Z,99933.47
2023-02-01T22:56:48.209Z,99948.31
2023-02-01T22:59:15.199Z,99946.63
2023-02-01T23:01:42.147Z,99952.78
2023-02-01T23:04:12.377Z,99953.69
2023-02-01T23:06:39.637Z,99945.84
2023-02-01T23:09:26.119Z,99952.00
2023-02-01T23:11:53.971Z,99961.59
2023-02-01T23:14:20.982Z,99944.16
2023-02-01T23:16:49.904Z,99953.84
2023-02-01T23:19:18.253Z,99955.59
2023-02-01T23:21:44.724Z,99958.28
2023-02-01T23:24:13.150Z,99971.38
2023-02-01T23:26:39.956Z,99965.28
2023-02-01T23:29:06.615Z,99971.44
2023-02-01T23:31:34.964Z,99975.84
2023-02-01T23:34:03.681Z,99981.03
2023-02-01T23:36:32.914Z,99981.03
2023-02-01T23:38:59.620Z,99973.19
2023-02-01T23:41:29.919Z,99972.31
2023-02-01T23:43:59.089Z,99985.34
2023-02-01T23:46:27.249Z,99980.97
2023-02-01T23:48:53.893Z,99982.72
2023-02-01T23:51:21.320Z,99981.75
2023-02-01T23:53:48.292Z,99987.84
2023-02-01T23:56:22.808Z,99985.34
2023-02-01T23:58:51.661Z,99979.94
